createdAt,value
2023-02-02T00:01:12.930Z,7.60
2023-02-02T00:07:55.196Z,7.60
2023-02-02T00:14:37.676Z,7.60
2023-02-02T00:21:20.039Z,7.60
2023-02-02T00:28:02.329Z,7.70
2023-02-02T00:34:44.611Z,7.60
2023-02-02T00:41:26.940Z,7.50
2023-02-02T00:48:10.792Z,7.50
2023-02-02T00:54:53.067Z,7.50
2023-02-02T01:01:35.682Z,7.50
2023-02-02T01:08:18.449Z,7.60
2023-02-02T01:15:02.459Z,7.70
2023-02-02T01:21:45.470Z,7.60
2023-02-02T01:28:28.639Z,7.70
2023-02-02T01:35:11.239Z,7.70
2023-02-02T01:41:53.506Z,7.70
2023-02-02T01:48:35.886Z,7.70
2023-02-02T01:55:21.934Z,7.60
2023-02-02T02:02:04.648Z,7.60
2023-02-02T02:08:57.355Z,7.60
2023-02-02T02:16:19.565Z,7.60
2023-02-02T02:23:39.208Z,7.60
2023-02-02T02:30:50.624Z,7.60
2023-02-02T02:38:10.284Z,7.60
2023-02-02T02:44:55.279Z,7.60
2023-02-02T02:52:04.301Z,7.60
2023-02-02T02:59:06.937Z,7.60
2023-02-02T03:06:15.073Z,7.60
2023-02-02T03:12:58.205Z,7.60
2023-02-02T03:19:40.517Z,7.60
2023-02-02T03:26:23.124Z,7.60
2023-02-02T03:33:05.928Z,7.60
2023-02-02T03:39:48.244Z,7.60
2023-02-02T03:46:30.630Z,7.60
2023-02-02T03:53:12.924Z,7.60
2023-02-02T03:59:55.225Z,7.60
2023-02-02T04:06:37.516Z,7.60
2023-02-02T04:13:19.846Z,7.60
2023-02-02T04:20:05.846Z,7.60
2023-02-02T04:26:48.279Z,7.60
2023-02-02T04:33:30.608Z,7.60
2023-02-02T04:40:13.752Z,7.70
2023-02-02T04:46:56.055Z,7.70
2023-02-02T04:53:39.316Z,7.70
2023-02-02T05:00:23.811Z,7.70
2023-02-02T05:07:07.544Z,7.70
2023-02-02T05:13:54.541Z,7.70
2023-02-02T05:20:36.857Z,7.70
2023-02-02T05:27:19.148Z,7.80
2023-02-02T05:34:01.478Z,7.70
2023-02-02T05:40:43.728Z,7.80
2023-02-02T05:47:26.113Z,7.70
2023-02-02T05:54:08.692Z,7.70
2023-02-02T06:00:51.331Z,7.80
2023-02-02T06:07:33.616Z,7.80
2023-02-02T06:14:15.956Z,7.80
2023-02-02T06:20:59.330Z,7.80
2023-02-02T06:27:41.700Z,7.80
2023-02-02T06:34:24.287Z,7.80
2023-02-02T06:41:07.125Z,7.80
2023-02-02T06:47:49.430Z,7.70
2023-02-02T06:54:31.799Z,7.80
2023-02-02T07:01:15.015Z,7.80
2023-02-02T07:07:57.456Z,7.80
2023-02-02T07:14:39.787Z,7.80
2023-02-02T07:21:24.191Z,7.90
2023-02-02T07:28:06.564Z,7.90
2023-02-02T07:34:48.867Z,7.90
2023-02-02T07:41:31.682Z,8.00
2023-02-02T07:48:13.982Z,8.00
2023-02-02T07:55:12.581Z,8.00
2023-02-02T08:01:56.613Z,8.10
2023-02-02T08:08:39.145Z,8.10
2023-02-02T08:15:21.544Z,8.20
2023-02-02T08:22:03.884Z,8.30
2023-02-02T08:28:48.552Z,8.40
2023-02-02T08:35:30.955Z,8.50
2023-02-02T08:42:13.280Z,8.50
2023-02-02T08:48:55.546Z,8.50
2023-02-02T08:55:37.893Z,8.50
2023-02-02T09:02:20.260Z,8.40
2023-02-02T09:09:06.030Z,8.50
2023-02-02T09:15:48.617Z,8.60
2023-02-02T09:22:31.045Z,8.60
2023-02-02T09:29:16.362Z,8.50
2023-02-02T09:36:08.367Z,8.50
2023-02-02T09:43:08.003Z,8.60
2023-02-02T09:50:18.253Z,8.60
2023-02-02T09:57:05.128Z,8.60
2023-02-02T10:04:10.871Z,8.60
2023-02-02T10:10:53.901Z,8.50
2023-02-02T10:17:50.206Z,8.50
2023-02-02T10:24:35.345Z,8.50
2023-02-02T10:31:40.693Z,8.60
2023-02-02T10:38:55.504Z,8.50
2023-02-02T10:45:40.319Z,8.50
2023-02-02T10:52:29.575Z,8.60
2023-02-02T10:59:24.826Z,8.50
2023-02-02T11:06:27.096Z,8.60
2023-02-02T11:13:16.000Z,8.70
2023-02-02T11:19:58.384Z,8.80
2023-02-02T11:26:48.964Z,8.90
2023-02-02T11:33:35.793Z,9.00
2023-02-02T11:40:53.184Z,9.10
2023-02-02T11:47:35.669Z,9.20
2023-02-02T11:54:30.331Z,9.20
2023-02-02T12:01:43.913Z,9.00
2023-02-02T12:08:26.250Z,8.90
2023-02-02T12:15:34.534Z,8.90
2023-02-02T12:22:41.556Z,8.90
2023-02-02T12:29:37.413Z,8.80
2023-02-02T12:36:38.467Z,8.70
2023-02-02T12:43:31.507Z,8.70
2023-02-02T12:50:56.251Z,8.50
2023-02-02T12:58:07.580Z,8.60
2023-02-02T13:05:31.517Z,8.50
2023-02-02T13:12:16.897Z,8.40
2023-02-02T13:19:06.972Z,8.40
2023-02-02T13:26:35.303Z,8.30
2023-02-02T13:33:23.195Z,8.40
2023-02-02T13:40:20.938Z,8.30
2023-02-02T13:47:10.417Z,8.40
2023-02-02T13:54:07.738Z,8.50
2023-02-02T14:00:53.892Z,8.50
2023-02-02T14:07:44.155Z,8.40
2023-02-02T14:14:32.798Z,8.50
2023-02-02T14:21:44.280Z,8.50
2023-02-02T14:28:48.550Z,8.50
2023-02-02T14:35:31.295Z,8.50
2023-02-02T14:42:48.127Z,8.50
2023-02-02T14:49:35.398Z,8.50
2023-02-02T14:56:19.156Z,8.60
2023-02-02T15:03:34.500Z,8.60
2023-02-02T15:11:25.994Z,8.60
2023-02-02T15:18:26.583Z,8.60
2023-02-02T15:25:35.790Z,8.80
2023-02-02T15:32:22.584Z,8.90
2023-02-02T15:39:27.873Z,8.80
2023-02-02T15:46:16.237Z,8.70
2023-02-02T15:52:59.029Z,8.70
2023-02-02T15:59:42.744Z,8.60
2023-02-02T16:06:25.115Z,8.60
2023-02-02T16:13:07.567Z,8.50
2023-02-02T16:19:56.512Z,8.60
2023-02-02T16:26:39.091Z,8.50
2023-02-02T16:33:38.275Z,8.60
2023-02-02T16:40:29.314Z,8.50
2023-02-02T16:47:32.697Z,8.50
2023-02-02T16:54:20.527Z,8.50
2023-02-02T17:01:15.657Z,8.50
2023-02-02T17:08:04.183Z,8.50
2023-02-02T17:15:05.570Z,8.50
2023-02-02T17:21:49.397Z,8.50
2023-02-02T17:28:31.820Z,8.40
2023-02-02T17:35:22.966Z,8.40
2023-02-02T17:42:06.489Z,8.40
2023-02-02T17:48:48.749Z,8.30
2023-02-02T17:55:36.068Z,8.30
2023-02-02T18:02:18.340Z,8.20
2023-02-02T18:09:00.746Z,8.20
2023-02-02T18:15:43.755Z,8.20
2023-02-02T18:22:26.544Z,8.20
2023-02-02T18:29:08.894Z,8.10
2023-02-02T18:35:51.240Z,8.20
2023-02-02T18:42:33.727Z,8.10
2023-02-02T18:49:16.376Z,8.20
2023-02-02T18:55:58.875Z,8.10
2023-02-02T19:02:41.153Z,8.10
2023-02-02T19:09:24.711Z,8.10
2023-02-02T19:16:25.380Z,8.10
2023-02-02T19:23:13.002Z,8.10
2023-02-02T19:30:03.456Z,8.00
2023-02-02T19:36:49.186Z,8.10
2023-02-02T19:43:32.998Z,8.10
2023-02-02T19:50:19.175Z,8.10
2023-02-02T19:57:21.177Z,8.00
2023-02-02T20:04:04.134Z,8.00
2023-02-02T20:10:46.489Z,8.10
2023-02-02T20:17:32.802Z,8.20
2023-02-02T20:24:37.916Z,8.20
2023-02-02T20:31:24.859Z,8.10
2023-02-02T20:38:22.858Z,8.00
2023-02-02T20:45:06.652Z,8.00
2023-02-02T20:51:49.244Z,8.00
2023-02-02T20:58:31.912Z,7.90
2023-02-02T21:05:14.749Z,7.90
2023-02-02T21:11:57.006Z,7.80
2023-02-02T21:18:39.317Z,7.70
2023-02-02T21:25:21.644Z,7.70
2023-02-02T21:32:11.179Z,7.70
2023-02-02T21:38:54.507Z,7.70
2023-02-02T21:45:38.339Z,7.80
2023-02-02T21:52:20.867Z,7.70
2023-02-02T21:59:11.911Z,7.70
2023-02-02T22:06:09.298Z,7.70
2023-02-02T22:12:51.661Z,7.70
2023-02-02T22:19:38.390Z,7.70
2023-02-02T22:26:33.451Z,7.80
2023-02-02T22:33:16.189Z,7.90
2023-02-02T22:40:00.595Z,7.80
2023-02-02T22:46:43.145Z,7.80
2023-02-02T22:53:25.583Z,7.80
2023-02-02T23:00:14.401Z,7.90
2023-02-02T23:06:56.680Z,7.90
2023-02-02T23:13:38.929Z,7.90
2023-02-02T23:20:21.611Z,7.90
2023-02-02T23:27:03.923Z,7.80
2023-02-02T23:33:46.173Z,7.70
2023-02-02T23:40:28.835Z,7.70
2023-02-02T23:47:11.615Z,7.70
2023-02-02T23:53:54.530Z,7.60
